sensor_id;sensor_type;location;lat;lon;timestamp;P1;durP1;ratioP1;P2;durP2;ratioP2
63714;SDS011;49858;48.956;9.076;2024-02-28T00:00:30;21.67;;;10.88;;
63714;SDS011;49858;48.956;9.076;2024-02-28T00:03:00;24.58;;;11.57;;
63714;SDS011;49858;48.956;9.076;2024-02-28T00:05:27;23.48;;;11.15;;
63714;SDS011;49858;48.956;9.076;2024-02-28T00:07:55;23.23;;;10.73;;
63714;SDS011;49858;48.956;9.076;2024-02-28T00:10:23;24.52;;;11.77;;
63714;SDS011;49858;48.956;9.076;2024-02-28T00:12:51;20.83;;;11.02;;
63714;SDS011;49858;48.956;9.076;2024-02-28T00:15:19;23.65;;;11.10;;
63714;SDS011;49858;48.956;9.076;2024-02-28T00:17:46;24.80;;;11.48;;
63714;SDS011;49858;48.956;9.076;2024-02-28T00:20:20;20.15;;;10.75;;
63714;SDS011;49858;48.956;9.076;2024-02-28T00:22:48;27.13;;;13.38;;
63714;SDS011;49858;48.956;9.076;2024-02-28T00:25:16;24.48;;;11.57;;
63714;SDS011;49858;48.956;9.076;2024-02-28T00:27:44;24.88;;;11.43;;
63714;SDS011;49858;48.956;9.076;2024-02-28T00:30:12;24.85;;;11.68;;
63714;SDS011;49858;48.956;9.076;2024-02-28T00:32:40;26.08;;;12.43;;
63714;SDS011;49858;48.956;9.076;2024-02-28T00:35:08;29.30;;;12.63;;
63714;SDS011;49858;48.956;9.076;2024-02-28T00:37:38;25.27;;;12.13;;
63714;SDS011;49858;48.956;9.076;2024-02-28T00:40:07;27.27;;;13.23;;
63714;SDS011;49858;48.956;9.076;2024-02-28T00:42:36;25.52;;;11.90;;
63714;SDS011;49858;48.956;9.076;2024-02-28T00:45:04;27.45;;;12.07;;
63714;SDS011;49858;48.956;9.076;2024-02-28T00:47:32;24.77;;;11.63;;
63714;SDS011;49858;48.956;9.076;2024-02-28T00:50:00;26.20;;;11.63;;
63714;SDS011;49858;48.956;9.076;2024-02-28T00:52:29;23.48;;;11.15;;
63714;SDS011;49858;48.956;9.076;2024-02-28T00:55:00;28.80;;;12.27;;
63714;SDS011;49858;48.956;9.076;2024-02-28T00:57:27;24.42;;;12.02;;
63714;SDS011;49858;48.956;9.076;2024-02-28T00:59:55;25.33;;;11.52;;
63714;SDS011;49858;48.956;9.076;2024-02-28T01:02:23;23.77;;;11.68;;
63714;SDS011;49858;48.956;9.076;2024-02-28T01:04:51;25.92;;;11.68;;
63714;SDS011;49858;48.956;9.076;2024-02-28T01:07:19;25.88;;;11.57;;
63714;SDS011;49858;48.956;9.076;2024-02-28T01:09:46;25.48;;;11.77;;
63714;SDS011;49858;48.956;9.076;2024-02-28T01:12:16;20.83;;;11.35;;
63714;SDS011;49858;48.956;9.076;2024-02-28T01:14:44;21.75;;;10.57;;
63714;SDS011;49858;48.956;9.076;2024-02-28T01:17:11;29.58;;;12.52;;
63714;SDS011;49858;48.956;9.076;2024-02-28T01:19:39;20.35;;;10.18;;
63714;SDS011;49858;48.956;9.076;2024-02-28T01:22:07;22.70;;;10.70;;
63714;SDS011;49858;48.956;9.076;2024-02-28T01:24:35;23.17;;;10.73;;
63714;SDS011;49858;48.956;9.076;2024-02-28T01:27:03;22.80;;;9.93;;
63714;SDS011;49858;48.956;9.076;2024-02-28T01:29:32;20.77;;;10.32;;
63714;SDS011;49858;48.956;9.076;2024-02-28T01:32:00;21.25;;;10.82;;
63714;SDS011;49858;48.956;9.076;2024-02-28T01:34:28;23.30;;;10.18;;
63714;SDS011;49858;48.956;9.076;2024-02-28T01:36:56;19.38;;;10.07;;
63714;SDS011;49858;48.956;9.076;2024-02-28T01:39:23;23.65;;;10.88;;
63714;SDS011;49858;48.956;9.076;2024-02-28T01:41:52;22.27;;;10.82;;
63714;SDS011;49858;48.956;9.076;2024-02-28T01:44:20;21.67;;;10.38;;
63714;SDS011;49858;48.956;9.076;2024-02-28T01:46:49;26.05;;;11.35;;
63714;SDS011;49858;48.956;9.076;2024-02-28T01:49:18;19.83;;;10.35;;
63714;SDS011;49858;48.956;9.076;2024-02-28T01:51:46;21.02;;;9.57;;
63714;SDS011;49858;48.956;9.076;2024-02-28T01:54:15;26.38;;;11.20;;
63714;SDS011;49858;48.956;9.076;2024-02-28T01:56:43;18.98;;;9.80;;
63714;SDS011;49858;48.956;9.076;2024-02-28T01:59:12;22.75;;;9.32;;
63714;SDS011;49858;48.956;9.076;2024-02-28T02:01:41;26.77;;;11.30;;
63714;SDS011;49858;48.956;9.076;2024-02-28T02:04:11;21.30;;;9.13;;
63714;SDS011;49858;48.956;9.076;2024-02-28T02:06:39;23.70;;;10.77;;
63714;SDS011;49858;48.956;9.076;2024-02-28T02:09:10;20.45;;;10.82;;
63714;SDS011;49858;48.956;9.076;2024-02-28T02:11:38;18.40;;;9.95;;
63714;SDS011;49858;48.956;9.076;2024-02-28T02:14:06;20.92;;;10.57;;
63714;SDS011;49858;48.956;9.076;2024-02-28T02:16:34;23.35;;;10.85;;
63714;SDS011;49858;48.956;9.076;2024-02-28T02:19:01;22.67;;;10.13;;
63714;SDS011;49858;48.956;9.076;2024-02-28T02:21:31;23.65;;;11.40;;
63714;SDS011;49858;48.956;9.076;2024-02-28T02:24:06;22.20;;;9.77;;
63714;SDS011;49858;48.956;9.076;2024-02-28T02:26:34;24.50;;;10.30;;
63714;SDS011;49858;48.956;9.076;2024-02-28T02:29:02;22.83;;;10.90;;
63714;SDS011;49858;48.956;9.076;2024-02-28T02:31:30;30.65;;;12.63;;
63714;SDS011;49858;48.956;9.076;2024-02-28T02:33:57;31.52;;;11.82;;
63714;SDS011;49858;48.956;9.076;2024-02-28T02:36:25;24.92;;;11.50;;
63714;SDS011;49858;48.956;9.076;2024-02-28T02:38:53;22.17;;;9.95;;
63714;SDS011;49858;48.956;9.076;2024-02-28T02:41:22;20.30;;;10.38;;
63714;SDS011;49858;48.956;9.076;2024-02-28T02:43:50;23.98;;;10.13;;
63714;SDS011;49858;48.956;9.076;2024-02-28T02:46:18;21.42;;;11.07;;
63714;SDS011;49858;48.956;9.076;2024-02-28T02:48:46;25.45;;;11.77;;
63714;SDS011;49858;48.956;9.076;2024-02-28T02:51:14;20.60;;;10.88;;
63714;SDS011;49858;48.956;9.076;2024-02-28T02:53:44;21.92;;;11.02;;
63714;SDS011;49858;48.956;9.076;2024-02-28T02:56:12;22.15;;;10.23;;
63714;SDS011;49858;48.956;9.076;2024-02-28T02:58:41;23.58;;;10.80;;
63714;SDS011;49858;48.956;9.076;2024-02-28T03:01:08;23.50;;;11.65;;
63714;SDS011;49858;48.956;9.076;2024-02-28T03:03:36;18.50;;;9.07;;
63714;SDS011;49858;48.956;9.076;2024-02-28T03:06:05;19.10;;;9.70;;
63714;SDS011;49858;48.956;9.076;2024-02-28T03:08:33;20.95;;;9.77;;
63714;SDS011;49858;48.956;9.076;2024-02-28T03:11:01;24.48;;;11.13;;
63714;SDS011;49858;48.956;9.076;2024-02-28T03:13:31;27.48;;;10.93;;
63714;SDS011;49858;48.956;9.076;2024-02-28T03:16:00;23.77;;;11.15;;
63714;SDS011;49858;48.956;9.076;2024-02-28T03:18:28;20.25;;;10.02;;
63714;SDS011;49858;48.956;9.076;2024-02-28T03:20:55;15.13;;;7.75;;
63714;SDS011;49858;48.956;9.076;2024-02-28T03:23:24;18.17;;;8.93;;
63714;SDS011;49858;48.956;9.076;2024-02-28T03:25:52;23.67;;;10.18;;
63714;SDS011;49858;48.956;9.076;2024-02-28T03:28:19;20.92;;;9.95;;
63714;SDS011;49858;48.956;9.076;2024-02-28T03:30:47;25.52;;;9.10;;
63714;SDS011;49858;48.956;9.076;2024-02-28T03:33:17;25.73;;;12.00;;
63714;SDS011;49858;48.956;9.076;2024-02-28T03:35:45;27.23;;;11.45;;
63714;SDS011;49858;48.956;9.076;2024-02-28T03:38:13;21.10;;;11.15;;
63714;SDS011;49858;48.956;9.076;2024-02-28T03:40:41;26.17;;;11.80;;
63714;SDS011;49858;48.956;9.076;2024-02-28T03:43:08;27.25;;;11.27;;
63714;SDS011;49858;48.956;9.076;2024-02-28T03:45:36;24.42;;;11.20;;
63714;SDS011;49858;48.956;9.076;2024-02-28T03:48:05;18.52;;;9.38;;
63714;SDS011;49858;48.956;9.076;2024-02-28T03:50:35;23.33;;;10.18;;
63714;SDS011;49858;48.956;9.076;2024-02-28T03:53:03;20.40;;;11.23;;
63714;SDS011;49858;48.956;9.076;2024-02-28T03:55:31;17.48;;;9.23;;
63714;SDS011;49858;48.956;9.076;2024-02-28T03:57:59;22.00;;;11.30;;
63714;SDS011;49858;48.956;9.076;2024-02-28T04:00:27;24.55;;;10.88;;
63714;SDS011;49858;48.956;9.076;2024-02-28T04:02:55;24.15;;;11.50;;
63714;SDS011;49858;48.956;9.076;2024-02-28T04:05:23;23.58;;;11.35;;
63714;SDS011;49858;48.956;9.076;2024-02-28T04:07:52;25.60;;;11.43;;
63714;SDS011;49858;48.956;9.076;2024-02-28T04:10:20;26.25;;;11.68;;
63714;SDS011;49858;48.956;9.076;2024-02-28T04:12:48;17.25;;;8.95;;
63714;SDS011;49858;48.956;9.076;2024-02-28T04:15:16;11.52;;;7.15;;
63714;SDS011;49858;48.956;9.076;2024-02-28T04:17:43;25.15;;;12.52;;
63714;SDS011;49858;48.956;9.076;2024-02-28T04:20:12;25.40;;;12.05;;
63714;SDS011;49858;48.956;9.076;2024-02-28T04:22:40;24.85;;;11.85;;
63714;SDS011;49858;48.956;9.076;2024-02-28T04:25:10;23.92;;;10.75;;
63714;SDS011;49858;48.956;9.076;2024-02-28T04:27:38;26.88;;;13.02;;
63714;SDS011;49858;48.956;9.076;2024-02-28T04:30:06;24.58;;;12.57;;
63714;SDS011;49858;48.956;9.076;2024-02-28T04:32:34;24.70;;;11.73;;
63714;SDS011;49858;48.956;9.076;2024-02-28T04:35:04;31.75;;;12.55;;
63714;SDS011;49858;48.956;9.076;2024-02-28T04:37:33;27.20;;;12.85;;
63714;SDS011;49858;48.956;9.076;2024-02-28T04:40:03;29.17;;;11.35;;
63714;SDS011;49858;48.956;9.076;2024-02-28T04:42:32;22.27;;;11.18;;
63714;SDS011;49858;48.956;9.076;2024-02-28T04:45:00;21.80;;;11.40;;
63714;SDS011;49858;48.956;9.076;2024-02-28T04:47:29;23.35;;;11.93;;
63714;SDS011;49858;48.956;9.076;2024-02-28T04:50:09;24.35;;;11.15;;
63714;SDS011;49858;48.956;9.076;2024-02-28T04:52:37;25.85;;;12.13;;
63714;SDS011;49858;48.956;9.076;2024-02-28T04:55:05;22.77;;;10.90;;
63714;SDS011;49858;48.956;9.076;2024-02-28T04:57:34;28.63;;;14.18;;
63714;SDS011;49858;48.956;9.076;2024-02-28T05:00:02;25.23;;;12.63;;
63714;SDS011;49858;48.956;9.076;2024-02-28T05:02:31;22.67;;;10.90;;
63714;SDS011;49858;48.956;9.076;2024-02-28T05:04:59;20.65;;;11.60;;
63714;SDS011;49858;48.956;9.076;2024-02-28T05:07:27;23.27;;;12.23;;
63714;SDS011;49858;48.956;9.076;2024-02-28T05:09:55;26.35;;;11.95;;
63714;SDS011;49858;48.956;9.076;2024-02-28T05:12:23;30.02;;;13.35;;
63714;SDS011;49858;48.956;9.076;2024-02-28T05:14:52;23.23;;;12.10;;
63714;SDS011;49858;48.956;9.076;2024-02-28T05:17:21;25.30;;;13.38;;
63714;SDS011;49858;48.956;9.076;2024-02-28T05:19:48;29.10;;;13.20;;
63714;SDS011;49858;48.956;9.076;2024-02-28T05:22:16;29.58;;;13.23;;
63714;SDS011;49858;48.956;9.076;2024-02-28T05:24:45;23.67;;;12.30;;
63714;SDS011;49858;48.956;9.076;2024-02-28T05:27:13;29.90;;;14.10;;
63714;SDS011;49858;48.956;9.076;2024-02-28T05:29:41;28.33;;;14.32;;
63714;SDS011;49858;48.956;9.076;2024-02-28T05:32:12;35.17;;;13.77;;
63714;SDS011;49858;48.956;9.076;2024-02-28T05:34:40;28.13;;;12.68;;
63714;SDS011;49858;48.956;9.076;2024-02-28T05:37:08;33.72;;;15.82;;
63714;SDS011;49858;48.956;9.076;2024-02-28T05:39:36;27.38;;;12.82;;
63714;SDS011;49858;48.956;9.076;2024-02-28T05:42:04;26.80;;;13.95;;
63714;SDS011;49858;48.956;9.076;2024-02-28T05:44:32;32.53;;;14.32;;
63714;SDS011;49858;48.956;9.076;2024-02-28T05:47:00;27.05;;;12.88;;
63714;SDS011;49858;48.956;9.076;2024-02-28T05:49:29;29.95;;;13.95;;
63714;SDS011;49858;48.956;9.076;2024-02-28T05:51:57;32.38;;;14.18;;
63714;SDS011;49858;48.956;9.076;2024-02-28T05:54:25;20.30;;;10.07;;
63714;SDS011;49858;48.956;9.076;2024-02-28T05:56:56;32.20;;;14.70;;
63714;SDS011;49858;48.956;9.076;2024-02-28T05:59:24;31.73;;;14.55;;
63714;SDS011;49858;48.956;9.076;2024-02-28T06:01:52;31.40;;;14.48;;
63714;SDS011;49858;48.956;9.076;2024-02-28T06:04:20;29.42;;;13.85;;
63714;SDS011;49858;48.956;9.076;2024-02-28T06:06:50;35.00;;;15.30;;
63714;SDS011;49858;48.956;9.076;2024-02-28T06:09:18;33.88;;;16.58;;
63714;SDS011;49858;48.956;9.076;2024-02-28T06:11:46;31.25;;;14.23;;
63714;SDS011;49858;48.956;9.076;2024-02-28T06:14:14;32.78;;;14.68;;
63714;SDS011;49858;48.956;9.076;2024-02-28T06:16:41;28.20;;;14.18;;
63714;SDS011;49858;48.956;9.076;2024-02-28T06:19:09;29.33;;;14.90;;
63714;SDS011;49858;48.956;9.076;2024-02-28T06:21:37;27.33;;;13.45;;
63714;SDS011;49858;48.956;9.076;2024-02-28T06:24:06;25.17;;;12.48;;
63714;SDS011;49858;48.956;9.076;2024-02-28T06:26:34;31.27;;;14.68;;
63714;SDS011;49858;48.956;9.076;2024-02-28T06:29:02;26.38;;;12.57;;
63714;SDS011;49858;48.956;9.076;2024-02-28T06:31:31;29.35;;;14.05;;
63714;SDS011;49858;48.956;9.076;2024-02-28T06:33:59;32.58;;;12.18;;
63714;SDS011;49858;48.956;9.076;2024-02-28T06:36:28;26.50;;;11.82;;
63714;SDS011;49858;48.956;9.076;2024-02-28T06:38:56;27.05;;;13.45;;
63714;SDS011;49858;48.956;9.076;2024-02-28T06:41:26;26.83;;;12.05;;
63714;SDS011;49858;48.956;9.076;2024-02-28T06:43:54;25.92;;;11.77;;
63714;SDS011;49858;48.956;9.076;2024-02-28T06:46:22;27.98;;;13.50;;
63714;SDS011;49858;48.956;9.076;2024-02-28T06:48:50;24.23;;;11.27;;
63714;SDS011;49858;48.956;9.076;2024-02-28T06:51:18;30.73;;;13.25;;
63714;SDS011;49858;48.956;9.076;2024-02-28T06:53:46;28.65;;;13.35;;
63714;SDS011;49858;48.956;9.076;2024-02-28T06:56:13;30.88;;;13.60;;
63714;SDS011;49858;48.956;9.076;2024-02-28T06:58:43;29.45;;;12.98;;
63714;SDS011;49858;48.956;9.076;2024-02-28T07:01:10;33.53;;;15.00;;
63714;SDS011;49858;48.956;9.076;2024-02-28T07:03:38;31.23;;;14.65;;
63714;SDS011;49858;48.956;9.076;2024-02-28T07:06:06;28.27;;;13.50;;
63714;SDS011;49858;48.956;9.076;2024-02-28T07:08:34;29.17;;;13.45;;
63714;SDS011;49858;48.956;9.076;2024-02-28T07:11:02;30.63;;;13.15;;
63714;SDS011;49858;48.956;9.076;2024-02-28T07:13:30;27.80;;;12.25;;
63714;SDS011;49858;48.956;9.076;2024-02-28T07:15:59;28.45;;;13.60;;
63714;SDS011;49858;48.956;9.076;2024-02-28T07:18:27;27.00;;;13.00;;
63714;SDS011;49858;48.956;9.076;2024-02-28T07:20:56;25.10;;;11.38;;
63714;SDS011;49858;48.956;9.076;2024-02-28T07:23:24;31.38;;;14.23;;
63714;SDS011;49858;48.956;9.076;2024-02-28T07:25:52;29.80;;;13.15;;
63714;SDS011;49858;48.956;9.076;2024-02-28T07:28:19;28.40;;;11.98;;
63714;SDS011;49858;48.956;9.076;2024-02-28T07:30:47;23.20;;;12.50;;
63714;SDS011;49858;48.956;9.076;2024-02-28T07:33:16;30.52;;;14.05;;
63714;SDS011;49858;48.956;9.076;2024-02-28T07:35:45;27.45;;;12.05;;
63714;SDS011;49858;48.956;9.076;2024-02-28T07:38:13;30.35;;;14.43;;
63714;SDS011;49858;48.956;9.076;2024-02-28T07:40:42;26.52;;;12.27;;
63714;SDS011;49858;48.956;9.076;2024-02-28T07:43:10;27.35;;;12.48;;
63714;SDS011;49858;48.956;9.076;2024-02-28T07:45:38;24.58;;;12.05;;
63714;SDS011;49858;48.956;9.076;2024-02-28T07:48:06;30.10;;;12.95;;
63714;SDS011;49858;48.956;9.076;2024-02-28T07:50:36;28.73;;;12.93;;
63714;SDS011;49858;48.956;9.076;2024-02-28T07:53:04;30.10;;;13.52;;
63714;SDS011;49858;48.956;9.076;2024-02-28T07:55:32;24.75;;;12.57;;
63714;SDS011;49858;48.956;9.076;2024-02-28T07:57:59;24.67;;;12.07;;
63714;SDS011;49858;48.956;9.076;2024-02-28T08:00:27;25.83;;;12.52;;
63714;SDS011;49858;48.956;9.076;2024-02-28T08:02:58;29.88;;;14.00;;
63714;SDS011;49858;48.956;9.076;2024-02-28T08:05:28;25.55;;;12.88;;
63714;SDS011;49858;48.956;9.076;2024-02-28T08:07:58;27.73;;;11.68;;
63714;SDS011;49858;48.956;9.076;2024-02-28T08:10:25;29.63;;;13.48;;
63714;SDS011;49858;48.956;9.076;2024-02-28T08:12:53;25.52;;;13.20;;
63714;SDS011;49858;48.956;9.076;2024-02-28T08:15:21;26.88;;;12.32;;
63714;SDS011;49858;48.956;9.076;2024-02-28T08:17:49;27.48;;;13.25;;
63714;SDS011;49858;48.956;9.076;2024-02-28T08:20:17;27.10;;;13.63;;
63714;SDS011;49858;48.956;9.076;2024-02-28T08:22:45;29.40;;;12.57;;
63714;SDS011;49858;48.956;9.076;2024-02-28T08:25:15;33.22;;;13.95;;
63714;SDS011;49858;48.956;9.076;2024-02-28T08:27:42;31.17;;;13.30;;
63714;SDS011;49858;48.956;9.076;2024-02-28T08:30:10;29.30;;;12.20;;
63714;SDS011;49858;48.956;9.076;2024-02-28T08:32:40;26.85;;;12.52;;
63714;SDS011;49858;48.956;9.076;2024-02-28T08:35:08;33.60;;;12.63;;
63714;SDS011;49858;48.956;9.076;2024-02-28T08:37:38;29.63;;;13.23;;
63714;SDS011;49858;48.956;9.076;2024-02-28T08:40:06;26.75;;;12.57;;
63714;SDS011;49858;48.956;9.076;2024-02-28T08:42:36;30.23;;;13.25;;
63714;SDS011;49858;48.956;9.076;2024-02-28T08:45:05;28.17;;;12.35;;
63714;SDS011;49858;48.956;9.076;2024-02-28T08:47:33;27.25;;;13.05;;
63714;SDS011;49858;48.956;9.076;2024-02-28T08:50:01;27.73;;;12.90;;
63714;SDS011;49858;48.956;9.076;2024-02-28T08:52:29;26.25;;;12.27;;
63714;SDS011;49858;48.956;9.076;2024-02-28T08:54:56;27.58;;;12.18;;
63714;SDS011;49858;48.956;9.076;2024-02-28T08:57:24;33.85;;;13.90;;
63714;SDS011;49858;48.956;9.076;2024-02-28T08:59:53;27.83;;;13.57;;
63714;SDS011;49858;48.956;9.076;2024-02-28T09:02:21;30.23;;;13.48;;
63714;SDS011;49858;48.956;9.076;2024-02-28T09:04:49;29.27;;;12.98;;
63714;SDS011;49858;48.956;9.076;2024-02-28T09:07:19;32.25;;;13.57;;
63714;SDS011;49858;48.956;9.076;2024-02-28T09:09:47;26.80;;;12.90;;
63714;SDS011;49858;48.956;9.076;2024-02-28T09:12:16;28.80;;;12.88;;
63714;SDS011;49858;48.956;9.076;2024-02-28T09:14:43;29.20;;;12.90;;
63714;SDS011;49858;48.956;9.076;2024-02-28T09:17:13;28.85;;;12.90;;
63714;SDS011;49858;48.956;9.076;2024-02-28T09:19:41;27.73;;;12.88;;
63714;SDS011;49858;48.956;9.076;2024-02-28T09:22:09;28.02;;;13.00;;
63714;SDS011;49858;48.956;9.076;2024-02-28T09:24:37;28.65;;;13.50;;
63714;SDS011;49858;48.956;9.076;2024-02-28T09:27:05;28.42;;;12.48;;
63714;SDS011;49858;48.956;9.076;2024-02-28T09:29:33;29.05;;;13.00;;
63714;SDS011;49858;48.956;9.076;2024-02-28T09:32:01;31.08;;;13.95;;
63714;SDS011;49858;48.956;9.076;2024-02-28T09:34:30;27.10;;;13.38;;
63714;SDS011;49858;48.956;9.076;2024-02-28T09:36:58;33.17;;;14.73;;
63714;SDS011;49858;48.956;9.076;2024-02-28T09:39:26;27.20;;;13.38;;
63714;SDS011;49858;48.956;9.076;2024-02-28T09:41:54;33.42;;;14.00;;
63714;SDS011;49858;48.956;9.076;2024-02-28T09:44:22;32.97;;;13.38;;
63714;SDS011;49858;48.956;9.076;2024-02-28T09:46:51;26.48;;;12.82;;
63714;SDS011;49858;48.956;9.076;2024-02-28T09:49:19;26.92;;;12.07;;
63714;SDS011;49858;48.956;9.076;2024-02-28T09:51:49;27.55;;;13.05;;
63714;SDS011;49858;48.956;9.076;2024-02-28T09:54:17;32.10;;;14.70;;
63714;SDS011;49858;48.956;9.076;2024-02-28T09:56:46;25.50;;;12.38;;
63714;SDS011;49858;48.956;9.076;2024-02-28T09:59:15;26.90;;;12.73;;
63714;SDS011;49858;48.956;9.076;2024-02-28T10:01:43;29.77;;;14.13;;
63714;SDS011;49858;48.956;9.076;2024-02-28T10:04:19;29.92;;;13.50;;
63714;SDS011;49858;48.956;9.076;2024-02-28T10:06:49;31.55;;;14.13;;
63714;SDS011;49858;48.956;9.076;2024-02-28T10:09:17;25.23;;;12.98;;
63714;SDS011;49858;48.956;9.076;2024-02-28T10:11:45;26.70;;;11.13;;
63714;SDS011;49858;48.956;9.076;2024-02-28T10:14:16;27.10;;;12.13;;
63714;SDS011;49858;48.956;9.076;2024-02-28T10:16:45;30.65;;;12.52;;
63714;SDS011;49858;48.956;9.076;2024-02-28T10:19:13;27.77;;;12.70;;
63714;SDS011;49858;48.956;9.076;2024-02-28T10:21:41;29.50;;;13.57;;
63714;SDS011;49858;48.956;9.076;2024-02-28T10:24:13;27.75;;;11.95;;
63714;SDS011;49858;48.956;9.076;2024-02-28T10:26:41;25.58;;;12.82;;
63714;SDS011;49858;48.956;9.076;2024-02-28T10:29:10;27.08;;;13.20;;
63714;SDS011;49858;48.956;9.076;2024-02-28T10:31:38;27.73;;;13.00;;
63714;SDS011;49858;48.956;9.076;2024-02-28T10:34:07;26.38;;;13.27;;
63714;SDS011;49858;48.956;9.076;2024-02-28T10:36:36;29.95;;;13.10;;
63714;SDS011;49858;48.956;9.076;2024-02-28T10:39:06;27.85;;;13.65;;
63714;SDS011;49858;48.956;9.076;2024-02-28T10:41:38;24.10;;;11.80;;
63714;SDS011;49858;48.956;9.076;2024-02-28T10:44:07;26.20;;;12.13;;
63714;SDS011;49858;48.956;9.076;2024-02-28T10:46:37;26.77;;;11.93;;
63714;SDS011;49858;48.956;9.076;2024-02-28T10:49:06;25.73;;;11.30;;
63714;SDS011;49858;48.956;9.076;2024-02-28T10:51:34;24.20;;;11.30;;
63714;SDS011;49858;48.956;9.076;2024-02-28T10:54:07;25.52;;;11.65;;
63714;SDS011;49858;48.956;9.076;2024-02-28T10:56:39;27.80;;;10.43;;
63714;SDS011;49858;48.956;9.076;2024-02-28T10:59:08;24.45;;;11.50;;
63714;SDS011;49858;48.956;9.076;2024-02-28T11:01:38;26.20;;;10.18;;
63714;SDS011;49858;48.956;9.076;2024-02-28T11:04:10;20.52;;;9.98;;
63714;SDS011;49858;48.956;9.076;2024-02-28T11:06:47;26.17;;;10.18;;
63714;SDS011;49858;48.956;9.076;2024-02-28T11:09:20;21.50;;;11.15;;
63714;SDS011;49858;48.956;9.076;2024-02-28T11:11:54;23.55;;;10.48;;
63714;SDS011;49858;48.956;9.076;2024-02-28T11:14:23;26.00;;;12.60;;
63714;SDS011;49858;48.956;9.076;2024-02-28T11:16:59;26.13;;;10.80;;
63714;SDS011;49858;48.956;9.076;2024-02-28T11:19:28;22.80;;;10.45;;
63714;SDS011;49858;48.956;9.076;2024-02-28T11:21:56;30.80;;;11.73;;
63714;SDS011;49858;48.956;9.076;2024-02-28T11:24:28;26.35;;;12.70;;
63714;SDS011;49858;48.956;9.076;2024-02-28T11:26:59;25.30;;;11.15;;
63714;SDS011;49858;48.956;9.076;2024-02-28T11:29:28;24.85;;;10.32;;
63714;SDS011;49858;48.956;9.076;2024-02-28T11:31:57;23.30;;;10.55;;
63714;SDS011;49858;48.956;9.076;2024-02-28T11:34:25;22.63;;;11.52;;
63714;SDS011;49858;48.956;9.076;2024-02-28T11:36:53;26.25;;;10.85;;
63714;SDS011;49858;48.956;9.076;2024-02-28T11:39:23;25.35;;;11.68;;
63714;SDS011;49858;48.956;9.076;2024-02-28T11:41:52;24.02;;;11.38;;
63714;SDS011;49858;48.956;9.076;2024-02-28T11:44:22;30.02;;;10.57;;
63714;SDS011;49858;48.956;9.076;2024-02-28T11:46:49;24.08;;;10.68;;
63714;SDS011;49858;48.956;9.076;2024-02-28T11:49:18;25.70;;;10.45;;
63714;SDS011;49858;48.956;9.076;2024-02-28T11:51:46;24.75;;;11.30;;
63714;SDS011;49858;48.956;9.076;2024-02-28T11:54:14;25.17;;;11.13;;
63714;SDS011;49858;48.956;9.076;2024-02-28T11:56:42;24.13;;;11.57;;
63714;SDS011;49858;48.956;9.076;2024-02-28T11:59:10;23.17;;;9.65;;
63714;SDS011;49858;48.956;9.076;2024-02-28T12:01:41;23.13;;;10.88;;
63714;SDS011;49858;48.956;9.076;2024-02-28T12:04:12;27.27;;;10.95;;
63714;SDS011;49858;48.956;9.076;2024-02-28T12:06:40;23.40;;;10.73;;
63714;SDS011;49858;48.956;9.076;2024-02-28T12:09:09;21.48;;;10.82;;
63714;SDS011;49858;48.956;9.076;2024-02-28T12:11:50;27.45;;;11.23;;
63714;SDS011;49858;48.956;9.076;2024-02-28T12:14:18;24.13;;;10.65;;
63714;SDS011;49858;48.956;9.076;2024-02-28T12:16:49;22.95;;;10.65;;
63714;SDS011;49858;48.956;9.076;2024-02-28T12:19:16;26.13;;;10.82;;
63714;SDS011;49858;48.956;9.076;2024-02-28T12:21:47;26.40;;;10.70;;
63714;SDS011;49858;48.956;9.076;2024-02-28T12:24:15;21.92;;;11.10;;
63714;SDS011;49858;48.956;9.076;2024-02-28T12:26:43;22.52;;;10.98;;
63714;SDS011;49858;48.956;9.076;2024-02-28T12:29:11;23.90;;;11.00;;
63714;SDS011;49858;48.956;9.076;2024-02-28T12:31:39;23.55;;;9.65;;
63714;SDS011;49858;48.956;9.076;2024-02-28T12:34:08;23.50;;;10.65;;
63714;SDS011;49858;48.956;9.076;2024-02-28T12:36:37;25.77;;;11.48;;
63714;SDS011;49858;48.956;9.076;2024-02-28T12:39:05;23.40;;;11.57;;
63714;SDS011;49858;48.956;9.076;2024-02-28T12:41:33;19.88;;;9.55;;
63714;SDS011;49858;48.956;9.076;2024-02-28T12:44:03;23.20;;;10.13;;
63714;SDS011;49858;48.956;9.076;2024-02-28T12:46:31;23.55;;;9.93;;
63714;SDS011;49858;48.956;9.076;2024-02-28T12:49:00;25.77;;;11.15;;
63714;SDS011;49858;48.956;9.076;2024-02-28T12:51:41;19.42;;;9.50;;
63714;SDS011;49858;48.956;9.076;2024-02-28T12:54:10;22.02;;;9.95;;
63714;SDS011;49858;48.956;9.076;2024-02-28T12:56:39;23.35;;;10.73;;
63714;SDS011;49858;48.956;9.076;2024-02-28T12:59:12;22.17;;;10.73;;
63714;SDS011;49858;48.956;9.076;2024-02-28T13:01:40;23.40;;;11.52;;
63714;SDS011;49858;48.956;9.076;2024-02-28T13:04:09;23.73;;;10.68;;
63714;SDS011;49858;48.956;9.076;2024-02-28T13:06:39;23.15;;;10.82;;
63714;SDS011;49858;48.956;9.076;2024-02-28T13:09:07;20.58;;;9.52;;
63714;SDS011;49858;48.956;9.076;2024-02-28T13:11:39;22.88;;;10.23;;
63714;SDS011;49858;48.956;9.076;2024-02-28T13:14:07;22.30;;;10.88;;
63714;SDS011;49858;48.956;9.076;2024-02-28T13:16:35;20.63;;;9.77;;
63714;SDS011;49858;48.956;9.076;2024-02-28T13:19:04;19.70;;;9.93;;
63714;SDS011;49858;48.956;9.076;2024-02-28T13:21:32;21.23;;;10.68;;
63714;SDS011;49858;48.956;9.076;2024-02-28T13:24:02;20.52;;;10.25;;
63714;SDS011;49858;48.956;9.076;2024-02-28T13:26:30;20.13;;;9.55;;
63714;SDS011;49858;48.956;9.076;2024-02-28T13:28:58;17.38;;;9.00;;
63714;SDS011;49858;48.956;9.076;2024-02-28T13:31:26;18.55;;;9.90;;
63714;SDS011;49858;48.956;9.076;2024-02-28T13:33:54;23.08;;;10.77;;
63714;SDS011;49858;48.956;9.076;2024-02-28T13:36:22;20.60;;;10.68;;
63714;SDS011;49858;48.956;9.076;2024-02-28T13:38:55;22.58;;;9.43;;
63714;SDS011;49858;48.956;9.076;2024-02-28T13:41:24;21.38;;;10.30;;
63714;SDS011;49858;48.956;9.076;2024-02-28T13:43:52;18.95;;;8.95;;
63714;SDS011;49858;48.956;9.076;2024-02-28T13:46:20;17.20;;;8.27;;
63714;SDS011;49858;48.956;9.076;2024-02-28T13:48:48;18.20;;;9.20;;
63714;SDS011;49858;48.956;9.076;2024-02-28T13:51:16;15.48;;;8.18;;
63714;SDS011;49858;48.956;9.076;2024-02-28T13:53:44;17.67;;;9.00;;
63714;SDS011;49858;48.956;9.076;2024-02-28T13:56:11;13.32;;;7.47;;
63714;SDS011;49858;48.956;9.076;2024-02-28T13:58:41;16.70;;;8.55;;
63714;SDS011;49858;48.956;9.076;2024-02-28T14:01:18;16.42;;;9.02;;
63714;SDS011;49858;48.956;9.076;2024-02-28T14:03:47;16.27;;;9.05;;
63714;SDS011;49858;48.956;9.076;2024-02-28T14:06:15;17.05;;;9.00;;
63714;SDS011;49858;48.956;9.076;2024-02-28T14:08:43;16.48;;;8.57;;
63714;SDS011;49858;48.956;9.076;2024-02-28T14:11:10;19.83;;;9.38;;
63714;SDS011;49858;48.956;9.076;2024-02-28T14:13:40;16.60;;;9.40;;
63714;SDS011;49858;48.956;9.076;2024-02-28T14:16:08;18.08;;;7.60;;
63714;SDS011;49858;48.956;9.076;2024-02-28T14:18:36;17.13;;;9.02;;
63714;SDS011;49858;48.956;9.076;2024-02-28T14:21:04;18.15;;;9.23;;
63714;SDS011;49858;48.956;9.076;2024-02-28T14:23:33;18.05;;;9.45;;
63714;SDS011;49858;48.956;9.076;2024-02-28T14:26:02;20.17;;;9.35;;
63714;SDS011;49858;48.956;9.076;2024-02-28T14:28:30;18.10;;;9.82;;
63714;SDS011;49858;48.956;9.076;2024-02-28T14:30:59;17.15;;;7.93;;